Time;durP1;ratioP1;P1;durP2;ratioP2;P2;SDS_P1;SDS_P2;PMS_P1;PMS_P2;Temp;Humidity;BMP_temperature;BMP_pressure;BME280_temperature;BME280_humidity;BME280_pressure;Samples;Min_cycle;Max_cycle;Signal;HPM_P1;HPM_P2
2023/09/07 00:01:52;;;;;;;2.35;2.25;;;23.80;99.90;;;23.99;74.43;101791.50;5052589;28;20079;-70
2023/09/07 00:04:22;;;;;;;2.20;2.10;;;23.60;99.90;;;23.88;74.85;101785.69;5042680;28;20053;-69
2023/09/07 00:06:51;;;;;;;3.45;3.28;;;23.50;99.90;;;23.89;74.71;101782.94;5044978;28;20049;-70
2023/09/07 00:09:21;;;;;;;2.85;2.67;;;23.50;99.90;;;23.87;74.89;101779.41;5050037;28;20052;-70
2023/09/07 00:11:50;;;;;;;2.20;2.10;;;23.40;99.90;;;23.79;75.54;101773.47;5039219;28;20106;-70
2023/09/07 00:14:18;;;;;;;2.83;2.72;;;23.30;99.90;;;23.64;75.99;101774.16;5047838;28;20075;-70
2023/09/07 00:16:47;;;;;;;2.47;2.38;;;23.20;99.90;;;23.67;76.27;101768.63;5046900;28;20144;-70
2023/09/07 00:19:15;;;;;;;2.45;2.35;;;23.20;99.90;;;23.45;76.75;101773.19;5038919;28;20103;-70
2023/09/07 00:21:45;;;;;;;2.33;2.13;;;23.10;99.90;;;23.50;77.14;101776.56;5051218;28;20407;-69
2023/09/07 00:24:16;;;;;;;2.30;2.20;;;23.10;99.90;;;23.53;77.08;101770.16;5035199;28;20049;-69
2023/09/07 00:26:44;;;;;;;;;;;23.10;99.90;;;23.66;76.75;101769.56;5048115;28;20041;-70
2023/09/07 00:29:12;;;;;;;3.17;2.97;;;23.20;99.90;;;23.60;76.74;101772.53;5038136;28;19921;-70
2023/09/07 00:31:41;;;;;;;2.33;2.22;;;23.20;99.90;;;23.61;76.65;101771.59;5050104;28;20061;-70
2023/09/07 00:34:10;;;;;;;2.38;2.28;;;23.20;99.90;;;23.62;77.06;101776.03;5041948;28;20045;-70
2023/09/07 00:36:38;;;;;;;2.65;2.50;;;23.20;99.90;;;23.69;76.39;101774.81;5042045;28;20041;-70
2023/09/07 00:39:08;;;;;;;2.75;2.65;;;23.30;99.90;;;23.61;76.43;101762.59;5050998;28;20106;-70
2023/09/07 00:41:36;;;;;;;2.42;2.33;;;23.30;99.90;;;23.85;76.19;101775.91;5039838;28;20590;-70
2023/09/07 00:44:05;;;;;;;2.03;1.92;;;23.50;99.90;;;23.99;75.64;101778.88;5050390;28;20072;-70
2023/09/07 00:46:34;;;;;;;4.32;3.97;;;23.60;99.90;;;24.14;74.85;101772.78;5047262;28;20047;-70
2023/09/07 00:49:04;;;;;;;4.28;4.07;;;23.70;99.90;;;24.15;74.66;101773.66;5038281;28;20061;-70
2023/09/07 00:51:33;;;;;;;2.40;2.30;;;23.80;99.90;;;24.25;74.44;101764.19;5064294;28;20056;-70
2023/09/07 00:54:02;;;;;;;3.08;2.90;;;23.90;99.90;;;24.34;74.14;101766.44;5059935;28;20037;-70
2023/09/07 00:56:32;;;;;;;2.25;2.15;;;24.00;99.90;;;24.32;73.64;101749.41;5070027;28;20052;-69
2023/09/07 00:59:01;;;;;;;2.30;2.20;;;24.10;99.90;;;24.46;73.20;101767.69;5038264;28;20045;-69
2023/09/07 01:01:33;;;;;;;2.50;2.40;;;24.10;99.90;;;24.32;73.72;101762.06;5063189;28;20121;-69
2023/09/07 01:04:03;;;;;;;2.10;2.00;;;24.00;99.90;;;24.54;73.00;101760.09;5043432;28;20041;-69
2023/09/07 01:06:38;;;;;;;1.73;1.73;;;24.10;99.90;;;24.46;72.83;101765.00;5050012;28;20080;-69
2023/09/07 01:09:15;;;;;;;2.00;1.90;;;24.10;99.90;;;24.44;73.31;101766.91;5050945;28;20045;-69
2023/09/07 01:11:46;;;;;;;2.33;2.22;;;24.10;99.90;;;24.30;73.42;101754.03;5049989;28;20057;-70
2023/09/07 01:14:14;;;;;;;2.28;2.17;;;24.00;99.90;;;24.42;73.32;101756.16;5047438;28;20060;-69
2023/09/07 01:16:43;;;;;;;1.92;1.83;;;24.00;99.90;;;24.45;72.91;101763.25;5038142;28;20103;-70
2023/09/07 01:19:12;;;;;;;3.28;3.10;;;24.10;99.90;;;24.59;72.72;101763.44;5047806;28;20144;-70
2023/09/07 01:21:42;;;;;;;2.50;2.40;;;24.20;99.90;;;24.54;72.35;101760.97;5045115;28;20200;-69
2023/09/07 01:24:12;;;;;;;2.03;1.92;;;24.20;99.90;;;24.56;72.22;101759.09;5039358;28;20059;-69
2023/09/07 01:26:40;;;;;;;2.25;2.15;;;24.20;99.90;;;24.48;72.49;101754.97;5050550;28;20104;-70
2023/09/07 01:29:09;;;;;;;2.15;2.05;;;24.10;99.90;;;24.39;72.60;101748.16;5040077;28;20044;-69
2023/09/07 01:31:39;;;;;;;2.33;2.22;;;24.10;99.90;;;24.27;72.77;101712.72;5052180;28;20056;-70
2023/09/07 01:34:08;;;;;;;1.98;1.88;;;24.10;99.90;;;24.54;72.91;101749.28;5037703;28;20055;-69
2023/09/07 01:36:36;;;;;;;1.98;1.88;;;24.10;99.90;;;24.50;72.89;101751.25;5036904;28;20088;-70
2023/09/07 01:39:07;;;;;;;2.03;1.92;;;24.10;99.90;;;24.48;72.73;101750.44;5045675;28;20092;-70
2023/09/07 01:41:36;;;;;;;1.90;1.80;;;24.10;99.90;;;24.49;72.88;101740.47;5044670;28;20045;-69
2023/09/07 01:44:05;;;;;;;1.80;1.80;;;24.20;99.90;;;24.51;72.72;101753.00;5068575;28;20049;-69
2023/09/07 01:46:35;;;;;;;2.80;2.70;;;24.10;99.90;;;24.50;72.89;101756.66;5038858;28;20478;-69
2023/09/07 01:49:04;;;;;;;1.98;1.88;;;24.10;99.90;;;24.50;72.98;101748.56;5049960;28;20064;-70
2023/09/07 01:51:33;;;;;;;1.90;1.80;;;24.10;99.90;;;24.52;72.68;101756.59;5047163;28;20501;-69
2023/09/07 01:54:01;;;;;;;2.30;2.20;;;24.20;99.90;;;24.44;72.98;101754.25;5050912;28;20069;-69
2023/09/07 01:56:31;;;;;;;3.00;2.65;;;24.10;99.90;;;24.40;73.23;101755.34;5049326;28;20041;-70
2023/09/07 01:59:00;;;;;;;2.20;2.10;;;24.00;99.90;;;24.39;73.18;101744.59;5042302;28;20072;-69
2023/09/07 02:01:34;;;;;;;2.10;2.00;;;24.00;99.90;;;24.36;73.27;101755.56;5055835;28;20487;-69
2023/09/07 02:04:02;;;;;;;2.63;2.53;;;24.00;99.90;;;24.35;73.28;101749.25;5068025;28;20083;-69
2023/09/07 02:06:31;;;;;;;2.03;1.92;;;24.00;99.90;;;24.21;73.63;101738.25;5047656;28;20045;-69
2023/09/07 02:08:59;;;;;;;2.35;2.25;;;23.90;99.90;;;24.29;73.73;101744.16;5043527;28;20057;-69
2023/09/07 02:11:27;;;;;;;2.90;2.78;;;23.90;99.90;;;24.21;73.69;101742.75;5069105;28;20139;-69
2023/09/07 02:13:57;;;;;;;2.20;2.10;;;23.90;99.90;;;24.13;73.88;101746.72;5051910;28;20037;-69
2023/09/07 02:16:26;;;;;;;2.53;2.43;;;23.80;99.90;;;24.08;74.23;101743.31;5049091;28;20495;-69
2023/09/07 02:19:04;;;;;;;2.15;2.05;;;23.80;99.90;;;24.10;74.47;101744.13;5043947;28;20394;-69
2023/09/07 02:21:33;;;;;;;3.85;2.47;;;23.70;99.90;;;24.14;74.34;101739.44;5052901;28;20046;-70
2023/09/07 02:24:01;;;;;;;2.33;2.22;;;23.70;99.90;;;24.06;74.52;101741.66;5049189;28;20049;-69
2023/09/07 02:26:29;;;;;;;2.30;2.20;;;23.70;99.90;;;24.04;74.66;101743.56;5042474;28;20052;-69
2023/09/07 02:28:59;;;;;;;3.55;3.28;;;23.70;99.90;;;24.02;74.79;101743.59;5049058;28;20049;-69
2023/09/07 02:31:28;;;;;;;2.00;1.90;;;23.60;99.90;;;24.01;74.70;101747.22;5048583;28;20136;-70
2023/09/07 02:33:56;;;;;;;2.72;2.63;;;23.60;99.90;;;24.07;75.00;101760.50;5038209;28;20280;-70
2023/09/07 02:36:25;;;;;;;2.10;2.00;;;23.70;99.90;;;24.08;74.68;101746.03;5043542;28;20061;-70
2023/09/07 02:38:53;;;;;;;2.38;2.28;;;23.70;99.90;;;24.05;74.56;101751.59;5046574;28;20076;-69
2023/09/07 02:41:22;;;;;;;3.60;3.40;;;23.70;99.90;;;24.08;74.63;101750.53;5049420;28;20053;-71
2023/09/07 02:43:51;;;;;;;2.10;2.00;;;23.70;99.90;;;24.11;74.55;101750.44;5048477;28;20045;-69
2023/09/07 02:46:21;;;;;;;2.10;2.00;;;23.70;99.90;;;24.00;74.83;101748.16;5041752;28;20045;-69
2023/09/07 02:48:49;;;;;;;2.50;2.40;;;23.60;99.90;;;23.96;74.90;101753.81;5039194;28;20436;-69
2023/09/07 02:51:18;;;;;;;2.75;2.65;;;23.60;99.90;;;23.98;74.71;101755.47;5049530;28;20449;-69
2023/09/07 02:53:47;;;;;;;8.50;3.28;;;23.60;99.90;;;23.94;74.91;101756.56;5039176;28;20080;-70
2023/09/07 02:56:16;;;;;;;2.10;2.00;;;23.60;99.90;;;23.83;75.02;101750.75;5048319;28;20510;-70
2023/09/07 02:58:45;;;;;;;2.63;2.53;;;23.50;99.90;;;23.91;75.26;101756.69;5047399;28;20534;-69
2023/09/07 03:01:14;;;;;;;2.47;2.38;;;23.50;99.90;;;23.88;75.27;101753.28;5052147;28;20049;-69
2023/09/07 03:03:44;;;;;;;2.25;2.15;;;23.50;99.90;;;23.87;75.31;101752.38;5046359;28;20075;-69
2023/09/07 03:06:16;;;;;;;2.58;2.47;;;23.50;99.90;;;23.84;75.13;101751.66;5043054;28;20056;-69
2023/09/07 03:08:47;;;;;;;2.20;2.10;;;23.50;99.90;;;23.78;75.62;101747.41;5053163;28;20144;-69
2023/09/07 03:11:16;;;;;;;2.20;2.10;;;23.40;99.90;;;23.79;75.49;101751.84;5032582;28;20056;-69
2023/09/07 03:13:45;;;;;;;1.98;1.88;;;23.40;99.90;;;23.80;75.70;101756.31;5051586;28;20080;-69
2023/09/07 03:16:13;;;;;;;2.35;2.25;;;23.40;99.90;;;23.78;75.50;101757.31;5048288;28;20056;-69
2023/09/07 03:18:43;;;;;;;2.22;2.13;;;23.40;99.90;;;23.80;75.54;101767.13;5065054;28;20040;-69
2023/09/07 03:21:13;;;;;;;2.10;2.00;;;23.40;99.90;;;23.76;75.63;101759.22;5051661;28;20843;-69
2023/09/07 03:23:44;;;;;;;2.35;2.25;;;23.40;99.90;;;23.79;75.65;101756.41;5052549;28;20508;-69
2023/09/07 03:26:14;;;;;;;2.15;2.05;;;23.30;99.90;;;23.77;75.79;101752.88;5047737;28;20388;-70
2023/09/07 03:28:42;;;;;;;1.95;1.85;;;23.40;99.90;;;23.68;75.70;101750.56;5047540;28;20060;-69
2023/09/07 03:31:11;;;;;;;2.20;2.10;;;23.30;99.90;;;23.72;75.77;101750.38;5037359;28;20395;-69
2023/09/07 03:33:39;;;;;;;2.13;2.03;;;23.30;99.90;;;23.72;75.83;101750.38;5052728;28;20052;-69
2023/09/07 03:36:09;;;;;;;2.35;2.25;;;23.30;99.90;;;23.65;76.04;101748.00;5038072;28;20042;-69
2023/09/07 03:38:37;;;;;;;2.30;2.20;;;23.30;99.90;;;23.62;75.85;101748.13;5048393;28;20037;-69
2023/09/07 03:41:06;;;;;;;1.92;1.83;;;23.30;99.90;;;23.54;76.20;101745.78;5038911;28;20041;-69
2023/09/07 03:43:34;;;;;;;2.30;2.20;;;23.20;99.90;;;23.47;76.36;101738.00;5056838;28;20064;-69
2023/09/07 03:46:03;;;;;;;2.20;2.10;;;23.10;99.90;;;23.47;76.62;101748.81;5044881;28;20041;-70
2023/09/07 03:48:31;;;;;;;2.20;2.10;;;23.10;99.90;;;23.41;77.05;101747.25;5048052;28;20136;-70
2023/09/07 03:51:00;;;;;;;1.73;1.73;;;23.10;99.90;;;23.39;76.95;101741.03;5037770;28;20132;-69
2023/09/07 03:53:30;;;;;;;2.05;1.95;;;23.10;99.90;;;23.48;76.95;101753.28;5050911;28;20402;-69
2023/09/07 03:55:59;;;;;;;2.10;2.00;;;23.10;99.90;;;23.46;76.93;101749.78;5047684;28;20438;-69
2023/09/07 03:58:28;;;;;;;2.38;2.28;;;23.10;99.90;;;23.45;77.04;101756.09;5047528;28;20053;-69
2023/09/07 04:01:00;;;;;;;2.08;1.98;;;23.10;99.90;;;23.32;77.07;101744.97;5039720;28;20127;-69
2023/09/07 04:03:30;;;;;;;2.60;2.50;;;23.10;99.90;;;23.39;76.93;101759.94;5047204;28;20080;-70
2023/09/07 04:05:59;;;;;;;2.00;1.90;;;23.00;99.90;;;23.39;77.16;101764.47;5048663;28;20061;-69
2023/09/07 04:08:27;;;;;;;2.20;2.10;;;23.00;99.90;;;23.34;77.33;101761.09;5036777;28;20060;-69
2023/09/07 04:10:57;;;;;;;2.50;2.40;;;23.00;99.90;;;23.27;77.43;101765.84;5043875;28;20504;-69
2023/09/07 04:13:26;;;;;;;2.00;1.90;;;22.90;99.90;;;23.30;77.53;101763.03;5043822;28;20049;-69
2023/09/07 04:15:54;;;;;;;1.60;1.60;;;22.90;99.90;;;23.27;77.60;101766.72;5051459;28;20131;-69
2023/09/07 04:18:23;;;;;;;2.38;2.28;;;22.90;99.90;;;23.19;77.61;101767.97;5036038;28;20056;-69
2023/09/07 04:20:52;;;;;;;2.28;2.17;;;22.80;99.90;;;23.19;77.86;101766.16;5047698;28;20041;-69
2023/09/07 04:23:20;;;;;;;2.10;2.00;;;22.80;99.90;;;23.19;77.57;101762.56;5045454;28;20041;-69
2023/09/07 04:25:49;;;;;;;2.38;2.28;;;22.80;99.90;;;23.26;77.41;101764.97;5048550;28;20045;-69
2023/09/07 04:28:19;;;;;;;2.45;2.35;;;22.90;99.90;;;23.22;77.69;101768.75;5047654;28;20095;-70
2023/09/07 04:30:47;;;;;;;2.00;1.90;;;22.80;99.90;;;23.21;77.56;101760.69;5057398;28;20049;-70
2023/09/07 04:33:15;;;;;;;3.22;3.03;;;22.80;99.90;;;22.89;77.76;101759.34;5050653;28;20044;-70
2023/09/07 04:35:44;;;;;;;2.63;2.53;;;22.60;99.90;;;22.78;78.58;101760.72;5035781;28;20103;-70
2023/09/07 04:38:12;;;;;;;2.42;2.33;;;22.50;99.90;;;22.42;80.02;101768.41;5047720;28;20514;-70
2023/09/07 04:40:40;;;;;;;2.08;1.98;;;22.10;99.90;;;22.30;81.04;101764.38;5045763;28;20091;-69
2023/09/07 04:43:09;;;;;;;2.83;2.65;;;21.90;99.90;;;22.32;81.41;101770.59;5041500;28;20045;-70
2023/09/07 04:45:47;;;;;;;2.45;2.35;;;21.90;99.90;;;22.33;81.27;101766.97;5052129;28;20119;-70
2023/09/07 04:48:16;;;;;;;2.10;2.00;;;21.90;99.90;;;22.31;81.37;101770.66;5050330;28;20095;-69
2023/09/07 04:50:44;;;;;;;3.33;3.13;;;21.90;99.90;;;22.36;81.36;101777.63;5045306;28;20094;-70
2023/09/07 04:53:12;;;;;;;4.45;4.25;;;21.90;99.90;;;22.46;81.03;101780.84;5039133;28;20475;-70
2023/09/07 04:55:41;;;;;;;2.53;2.42;;;22.00;99.90;;;22.49;80.63;101780.75;5038855;28;20090;-70
2023/09/07 04:58:09;;;;;;;2.10;2.00;;;22.10;99.90;;;22.58;80.60;101777.72;5047242;28;20041;-69
2023/09/07 05:00:39;;;;;;;2.42;2.33;;;22.20;99.90;;;22.65;80.58;101783.75;5047061;28;20494;-69
2023/09/07 05:03:07;;;;;;;2.20;2.10;;;22.20;99.90;;;22.70;80.16;101774.53;5039074;28;20057;-70
2023/09/07 05:05:35;;;;;;;2.58;2.47;;;22.30;99.90;;;22.78;79.63;101779.63;5050774;28;20314;-69
2023/09/07 05:08:05;;;;;;;2.28;2.17;;;22.40;99.90;;;22.76;79.44;101779.69;5043633;28;20049;-69
2023/09/07 05:10:34;;;;;;;2.13;2.03;;;22.40;99.90;;;22.83;79.43;101780.31;5050307;28;20045;-69
2023/09/07 05:13:04;;;;;;;3.40;3.20;;;22.40;99.90;;;22.83;79.20;101791.97;5066533;28;20049;-69
2023/09/07 05:15:32;;;;;;;2.47;2.38;;;22.40;99.90;;;22.86;79.29;101786.44;5039785;28;20045;-70
2023/09/07 05:18:02;;;;;;;2.67;2.58;;;22.50;99.90;;;23.01;79.06;101795.75;5045584;28;20083;-70
2023/09/07 05:20:31;;;;;;;2.20;2.10;;;22.50;99.90;;;23.05;78.42;101786.59;5047436;28;20138;-70
2023/09/07 05:23:00;;;;;;;2.50;2.40;;;22.60;99.90;;;23.15;78.04;101791.53;5053425;28;20041;-70
2023/09/07 05:25:29;;;;;;;2.00;1.90;;;22.70;99.90;;;23.18;77.33;101787.84;5055667;28;20041;-71
2023/09/07 05:27:58;;;;;;;2.35;2.25;;;22.80;99.90;;;23.39;76.91;101786.97;5054831;28;20106;-70
2023/09/07 05:30:26;;;;;;;2.20;2.10;;;23.00;99.90;;;23.49;76.65;101792.84;5039461;28;20049;-70
2023/09/07 05:32:55;;;;;;;2.10;2.00;;;23.10;99.90;;;23.54;76.49;101797.09;5051685;28;20363;-71
2023/09/07 05:35:27;;;;;;;2.25;2.15;;;23.10;99.90;;;23.71;75.70;101799.94;5048579;28;20124;-71
2023/09/07 05:37:56;;;;;;;2.45;2.35;;;23.30;99.90;;;23.80;75.39;101802.25;5060562;28;20139;-70
2023/09/07 05:40:24;;;;;;;2.22;2.13;;;23.40;99.90;;;23.88;74.96;101797.41;5054594;28;20051;-71
2023/09/07 05:42:52;;;;;;;2.30;2.20;;;23.50;99.90;;;24.02;74.25;101804.94;5052646;28;20056;-70
2023/09/07 05:45:21;;;;;;;2.30;2.20;;;23.60;99.90;;;24.10;74.01;101800.91;5062035;28;20438;-71
2023/09/07 05:47:50;;;;;;;2.10;2.00;;;23.70;99.90;;;24.20;73.31;101805.94;5043669;28;20140;-71
2023/09/07 05:50:18;;;;;;;4.07;3.75;;;23.80;99.90;;;24.32;73.08;101805.34;5052991;28;20049;-71
2023/09/07 05:52:48;;;;;;;2.00;1.90;;;23.90;99.90;;;24.33;72.60;101810.66;5052152;28;20055;-72
2023/09/07 05:55:17;;;;;;;6.93;5.22;;;24.00;99.90;;;24.49;72.32;101800.00;5044937;28;20045;-71
2023/09/07 05:57:45;;;;;;;3.42;3.20;;;24.10;99.90;;;24.66;71.63;101810.94;5045540;28;20394;-71
2023/09/07 06:00:15;;;;;;;2.08;1.98;;;24.20;99.90;;;24.87;70.95;101805.38;5049215;28;20050;-71
2023/09/07 06:02:46;;;;;;;4.35;4.10;;;24.40;99.90;;;24.98;70.19;101810.28;5036844;28;20526;-71
2023/09/07 06:05:16;;;;;;;2.10;2.00;;;24.60;99.90;;;25.16;69.08;101803.09;5060732;28;20061;-71
2023/09/07 06:07:45;;;;;;;2.20;2.10;;;24.80;99.90;;;25.23;68.74;101813.53;5045577;28;20788;-71
2023/09/07 06:10:17;;;;;;;2.22;2.13;;;24.80;99.90;;;25.43;68.48;101805.31;5052574;28;20331;-71
2023/09/07 06:12:46;;;;;;;2.30;2.20;;;25.00;99.90;;;25.54;67.76;101819.19;5048983;28;20483;-72
2023/09/07 06:15:16;;;;;;;1.65;1.65;;;25.10;99.90;;;25.53;67.54;101814.72;5042204;28;20049;-71
2023/09/07 06:17:45;;;;;;;5.82;3.97;;;25.20;99.90;;;25.55;66.88;101823.63;5049134;28;20046;-71
2023/09/07 06:20:14;;;;;;;1.85;1.80;;;25.20;99.90;;;25.73;67.04;101825.41;5050104;28;20044;-71
2023/09/07 06:22:45;;;;;;;1.80;1.80;;;25.30;99.90;;;25.99;66.38;101839.44;5038855;28;20144;-71
2023/09/07 06:25:13;;;;;;;1.60;1.60;;;25.60;99.90;;;25.99;65.61;101834.91;5065752;28;20087;-71
2023/09/07 06:27:44;;;;;;;1.40;1.40;;;25.70;99.90;;;26.08;65.52;101845.28;5051809;28;20050;-71
2023/09/07 06:30:13;;;;;;;2.95;2.72;;;25.70;99.90;;;26.05;65.06;101830.97;5052089;28;20053;-71
2023/09/07 06:32:42;;;;;;;2.13;2.03;;;25.70;99.90;;;26.11;64.58;101834.28;5053479;28;20083;-71
2023/09/07 06:35:12;;;;;;;1.95;1.85;;;25.80;99.90;;;26.20;64.96;101832.91;5049036;28;20541;-71
2023/09/07 06:37:43;;;;;;;1.77;1.77;;;25.80;99.90;;;26.27;64.46;101832.47;5047986;28;20045;-71
2023/09/07 06:40:15;;;;;;;2.17;2.08;;;25.90;99.90;;;26.00;64.86;101830.38;5033360;28;20049;-71
2023/09/07 06:42:46;;;;;;;2.08;1.98;;;25.70;99.90;;;26.10;64.95;101834.34;5041107;28;20040;-72
2023/09/07 06:45:17;;;;;;;2.40;2.30;;;25.70;99.90;;;26.42;64.70;101833.50;5068784;28;20041;-71
2023/09/07 06:47:45;;;;;;;2.00;1.90;;;26.00;99.90;;;26.26;63.80;101838.88;5037087;28;20056;-72
2023/09/07 06:50:14;;;;;;;1.65;1.65;;;25.90;99.90;;;26.09;64.38;101836.22;5047279;28;20037;-71
2023/09/07 06:52:42;;;;;;;1.50;1.50;;;25.80;99.90;;;26.36;64.32;101837.44;5040794;28;20063;-71
2023/09/07 06:55:11;;;;;;;2.72;2.63;;;26.00;99.90;;;26.51;63.75;101838.41;5052612;28;20398;-71
2023/09/07 06:57:39;;;;;;;1.88;1.83;;;26.10;99.90;;;26.55;63.37;101837.28;5049596;28;20072;-71
2023/09/07 07:00:11;;;;;;;1.70;1.70;;;26.20;99.90;;;26.19;64.95;101834.72;5048121;28;20099;-72
2023/09/07 07:02:40;;;;;;;1.63;1.63;;;25.80;99.90;;;26.07;64.91;101831.81;5041735;28;20053;-71
2023/09/07 07:05:10;;;;;;;2.97;2.78;;;25.70;99.90;;;26.20;64.59;101838.31;5047945;28;20065;-72
2023/09/07 07:07:38;;;;;;;2.15;2.05;;;25.80;99.90;;;26.37;64.86;101828.31;5048035;28;20467;-72
2023/09/07 07:10:09;;;;;;;1.83;1.83;;;25.90;99.90;;;26.48;65.25;101833.16;5040164;28;20045;-71
2023/09/07 07:12:40;;;;;;;2.55;2.35;;;26.00;99.90;;;26.69;64.07;101835.53;5048165;28;20107;-72
2023/09/07 07:15:11;;;;;;;2.42;2.33;;;26.30;99.90;;;26.17;65.44;101835.78;5047698;28;20045;-72
2023/09/07 07:17:40;;;;;;;9.57;5.15;;;25.80;99.90;;;25.53;66.62;101830.97;5035622;28;20061;-71
2023/09/07 07:20:10;;;;;;;2.30;2.20;;;25.30;99.90;;;25.79;68.10;101832.34;5047818;28;20132;-71
2023/09/07 07:22:39;;;;;;;3.67;3.47;;;25.30;99.90;;;25.15;68.84;101829.28;5044499;28;20410;-71
2023/09/07 07:25:10;;;;;;;3.22;2.97;;;24.80;99.90;;;25.25;69.17;101822.47;5049003;28;20053;-71
2023/09/07 07:27:39;;;;;;;3.35;3.15;;;24.80;99.90;;;24.72;70.19;101814.25;5046153;28;20049;-69
2023/09/07 07:30:10;;;;;;;3.75;3.47;;;24.30;99.90;;;24.68;71.77;101815.31;5040805;28;20072;-69
2023/09/07 07:32:40;;;;;;;4.00;3.63;;;24.20;99.90;;;24.25;71.74;101812.00;5052726;28;20132;-69
2023/09/07 07:35:09;;;;;;;4.28;3.85;;;23.90;99.90;;;24.72;71.08;101816.06;5050583;28;20505;-68
2023/09/07 07:37:38;;;;;;;2.55;2.45;;;24.10;99.90;;;24.76;70.85;101817.69;5048028;28;20038;-68
2023/09/07 07:40:08;;;;;;;2.75;2.55;;;24.20;99.90;;;24.39;73.02;101818.50;5042030;28;20520;-69
2023/09/07 07:42:37;;;;;;;4.75;4.28;;;23.90;99.90;;;24.09;73.76;101811.81;5047801;28;20057;-69
2023/09/07 07:45:07;;;;;;;2.70;2.60;;;23.70;99.90;;;24.42;74.62;101812.06;5047511;28;20041;-68
2023/09/07 07:47:37;;;;;;;5.47;5.05;;;23.90;99.90;;;24.48;73.12;101804.56;5055273;28;20041;-69
2023/09/07 07:50:07;;;;;;;6.10;5.05;;;24.00;99.90;;;24.25;73.17;101801.16;5051334;28;20049;-69
2023/09/07 07:52:36;;;;;;;2.90;2.55;;;23.80;99.90;;;24.65;73.78;101804.63;5047470;28;20049;-68
2023/09/07 07:55:06;;;;;;;3.67;3.45;;;24.10;99.90;;;24.76;70.95;101798.72;5035125;28;20041;-68
2023/09/07 07:57:34;;;;;;;4.77;4.37;;;24.30;99.90;;;24.52;70.75;101805.28;5058786;28;20053;-69
2023/09/07 08:00:04;;;;;;;5.28;4.07;;;24.10;99.90;;;24.41;70.82;101803.06;5043336;28;20107;-68
2023/09/07 08:02:43;;;;;;;3.30;3.10;;;24.00;99.90;;;24.75;70.78;101797.00;5049984;28;20049;-69
2023/09/07 08:05:13;;;;;;;4.82;3.97;;;24.20;99.90;;;24.82;70.41;101799.31;5053809;28;20084;-70
2023/09/07 08:07:42;;;;;;;3.35;3.17;;;24.40;99.90;;;24.77;69.52;101811.31;5047759;28;20042;-70
2023/09/07 08:10:10;;;;;;;9.68;4.35;;;24.30;99.90;;;24.83;70.47;101808.31;5062569;28;20099;-70
2023/09/07 08:12:39;;;;;;;3.42;3.22;;;24.40;99.90;;;24.93;70.44;101807.78;5049239;28;20486;-69
2023/09/07 08:15:08;;;;;;;2.83;2.72;;;24.50;99.90;;;25.23;68.50;101802.69;5041430;28;20048;-69
2023/09/07 08:17:37;;;;;;;4.93;4.53;;;24.70;99.90;;;25.18;67.58;101810.19;5055873;28;20049;-69
2023/09/07 08:20:11;;;;;;;3.08;2.88;;;24.80;99.90;;;25.20;68.38;101805.56;5056115;28;20045;-69
2023/09/07 08:22:41;;;;;;;3.38;3.10;;;24.70;99.90;;;25.44;67.44;101795.34;5052070;28;20042;-69
2023/09/07 08:25:12;;;;;;;3.45;3.25;;;24.90;99.90;;;25.34;66.79;101788.63;5043269;28;20110;-69
2023/09/07 08:27:44;;;;;;;3.35;2.97;;;25.00;99.90;;;25.44;66.10;101795.34;5054708;28;20147;-69
2023/09/07 08:30:17;;;;;;;3.00;2.47;;;25.00;99.90;;;25.53;65.22;101803.00;5039431;28;20117;-69
2023/09/07 08:32:47;;;;;;;3.25;2.95;;;25.10;99.90;;;25.61;66.91;101809.78;5049586;28;20107;-70
2023/09/07 08:35:17;;;;;;;3.10;2.85;;;25.20;99.90;;;25.78;65.69;101807.06;5046125;28;20052;-70
2023/09/07 08:37:45;;;;;;;7.35;5.03;;;25.20;99.90;;;25.45;64.38;101811.53;5051103;28;20104;-69
2023/09/07 08:40:16;;;;;;;4.70;4.40;;;25.20;99.90;;;25.45;64.78;101807.94;5050687;28;20049;-69
2023/09/07 08:42:45;;;;;;;4.35;3.80;;;25.00;99.90;;;25.47;65.93;101804.22;5042843;28;20069;-69
2023/09/07 08:45:16;;;;;;;3.38;3.08;;;25.00;99.90;;;25.50;65.58;101804.03;5044142;28;20379;-69
2023/09/07 08:47:46;;;;;;;6.18;3.50;;;25.00;99.90;;;25.64;64.02;101789.78;5051144;28;20539;-70
2023/09/07 08:50:17;;;;;;;4.38;3.83;;;25.20;99.90;;;25.67;63.96;101790.47;5039348;28;20072;-69
2023/09/07 08:52:47;;;;;;;2.60;2.50;;;25.20;99.90;;;25.89;65.64;101790.25;5047184;28;20045;-69
2023/09/07 08:55:15;;;;;;;4.22;3.83;;;25.40;99.90;;;25.99;64.09;101790.63;5047594;28;20398;-70
2023/09/07 08:57:44;;;;;;;2.75;2.58;;;25.50;99.90;;;26.06;63.80;101792.06;5038345;28;20129;-69
2023/09/07 09:00:16;;;;;;;3.92;3.63;;;25.50;99.90;;;26.11;66.09;101795.44;5053522;28;20470;-70
2023/09/07 09:02:48;;;;;;;2.63;2.53;;;25.60;99.90;;;26.14;64.29;101795.25;5054852;28;20052;-69
2023/09/07 09:05:21;;;;;;;2.55;2.35;;;25.60;99.90;;;26.72;65.86;101789.25;5040105;28;20053;-69
2023/09/07 09:07:49;;;;;;;2.50;2.30;;;26.10;99.90;;;26.70;63.18;101793.91;5052559;28;20052;-69
2023/09/07 09:10:19;;;;;;;4.43;3.53;;;26.30;99.90;;;26.94;63.86;101790.75;5048121;28;20103;-69
2023/09/07 09:12:47;;;;;;;1.60;1.60;;;26.40;99.90;;;26.95;61.94;101793.38;5046092;28;20068;-70
2023/09/07 09:15:16;;;;;;;4.00;3.70;;;26.50;99.90;;;26.98;59.83;101792.31;5040186;28;20053;-70
2023/09/07 09:17:45;;;;;;;3.35;2.85;;;26.60;99.90;;;26.73;62.41;101798.28;5052567;28;20056;-69
2023/09/07 09:20:26;;;;;;;7.40;2.72;;;26.30;99.90;;;26.78;60.55;101801.63;5047484;28;20439;-70
2023/09/07 09:22:56;;;;;;;3.95;3.65;;;26.30;99.90;;;26.75;59.66;101796.38;5046925;28;20060;-70
2023/09/07 09:25:26;;;;;;;2.40;2.20;;;26.40;99.90;;;26.86;58.87;101796.63;5068206;28;20053;-69
2023/09/07 09:27:54;;;;;;;3.13;2.92;;;26.40;99.90;;;26.80;60.03;101799.69;5040190;28;20521;-69
2023/09/07 09:30:23;;;;;;;2.72;2.53;;;26.40;99.90;;;27.43;60.41;101798.69;5050208;28;20107;-69
2023/09/07 09:32:52;;;;;;;2.88;2.67;;;26.80;99.90;;;27.20;60.13;101804.56;5048700;28;20048;-70
2023/09/07 09:35:21;;;;;;;4.32;3.47;;;26.80;99.90;;;26.95;60.91;101806.06;5037835;28;20140;-70
2023/09/07 09:37:50;;;;;;;3.42;3.13;;;26.50;99.90;;;26.86;59.67;101807.50;5048306;28;20442;-69
2023/09/07 09:40:19;;;;;;;2.63;2.42;;;26.40;99.90;;;27.25;60.43;101790.72;5044774;28;20460;-69
2023/09/07 09:42:49;;;;;;;3.97;3.65;;;26.60;99.90;;;26.99;62.30;101803.09;5039701;28;20049;-70
2023/09/07 09:45:18;;;;;;;3.78;3.42;;;26.50;99.90;;;27.04;61.65;101791.97;5050496;28;20049;-69
2023/09/07 09:47:47;;;;;;;1.90;1.85;;;26.60;99.90;;;27.20;59.19;101790.09;5041396;28;20493;-70
2023/09/07 09:50:16;;;;;;;6.55;3.45;;;26.70;99.90;;;27.00;59.04;101804.88;5043050;28;20461;-70
2023/09/07 09:52:47;;;;;;;5.35;3.55;;;26.60;99.90;;;26.88;61.28;101772.97;5049722;28;20123;-69
2023/09/07 09:55:17;;;;;;;2.25;2.15;;;26.50;99.90;;;27.57;60.58;101779.69;5038106;28;20127;-70
2023/09/07 09:57:45;;;;;;;2.47;2.28;;;27.00;99.90;;;27.81;58.31;101782.78;5045680;28;20041;-71
2023/09/07 10:00:25;;;;;;;2.20;2.10;;;27.40;99.90;;;27.53;58.56;101769.09;5045975;28;20474;-70
2023/09/07 10:03:06;;;;;;;3.25;3.00;;;27.20;99.90;;;27.43;58.15;101778.75;5037676;28;20057;-69
2023/09/07 10:05:35;;;;;;;2.45;2.25;;;27.10;99.90;;;27.45;59.48;101776.84;5045877;28;20136;-69
2023/09/07 10:08:09;;;;;;;3.40;3.10;;;27.00;99.90;;;27.55;57.11;101776.19;5045213;28;20040;-69
2023/09/07 10:10:42;;;;;;;10.30;3.10;;;27.10;99.90;;;27.05;59.71;101694.06;5037331;28;20545;-69
2023/09/07 10:13:10;;;;;;;5.25;3.97;;;27.00;99.90;;;27.38;59.70;101780.91;5048770;28;20037;-70
2023/09/07 10:15:39;;;;;;;3.22;3.03;;;26.90;99.90;;;27.53;57.79;101779.97;5042982;28;20081;-69
2023/09/07 10:18:11;;;;;;;3.38;3.13;;;27.00;99.90;;;27.60;57.02;101773.22;5040134;28;20179;-69
2023/09/07 10:20:55;;;;;;;6.93;3.42;;;27.10;99.90;;;27.87;57.91;101779.69;5067197;28;20482;-69
2023/09/07 10:23:36;;;;;;;3.38;2.50;;;27.40;99.90;;;27.81;57.79;101784.63;5045312;28;20054;-69